Skip Navigation Links
NOAA logo - Click to go to the NOAA homepage
NOAA's National Weather Service
Alaska Aviation Weather Unit
  NWS logo - Click to go to the NWS homepage
Left Navbar Graphic     12 AKDT = 20 GMT

   
NOAA is celebrating 200 years of science, service, and stewardship. Visit the NOAA 200th celebration Web site to learn more.
USA.gov is the U.S. Government's official Web portal to all Federal, state and local government Web resources and services.
Facebook
NWS on Facebook

Important Change Regarding the AAWU Web Presence

 

Over the last several months, the AAWU has been working to navigate its webpages to a nationally supported server. Security, as well as other needs, have necessitated the change.  We have been given an extension for the site changeover while we diligently work at addressing feedback received. As of July 14, 2017, aawu.arh.noaa.gov will be discontinued. The new AAWU web address is weather.gov/aawu. It is now live and will run in-parallel with the old site until it is discontinued on July 14, 2017. Please continue to send any feedback or questions regarding the new webpages to nws.ar.aawu.webauthors@noaa.gov.  Thank you for your patience during this time of transition.
AAWU Home :: Display TAF Add Bookmark
METAR PAEM 251456Z AUTO 27004KT 10SM OVC048 12/12 A2993 RMK AO2 SLP194
     T01220117 51003=

SPECI PAEM 251512Z AUTO 26004KT 10SM SCT007 OVC048 12/12 A2993 RMK
     AO2=

SPECI PAEM 251520Z AUTO 25004KT 10SM BKN009 OVC048 12/12 A2993 RMK
 AO2 CIG 007V011=

METAR PAEM 251556Z AUTO VRB03KT 10SM OVC009 12/12 A2992 RMK AO2
 SLP192 T01220117=

SPECI PAEM 251645Z AUTO 27006KT 10SM SCT009 OVC044 13/11 A2992 RMK
     AO2=

METAR PAEM 251656Z AUTO 28004KT 10SM OVC042 13/11 A2992 RMK AO2 SLP191
     T01280111=

METAR PAEM 251756Z AUTO 27007KT 10SM OVC041 13/11 A2992 RMK AO2 SLP192
     T01280111 10128 20117 56003=

METAR PAEM 251856Z AUTO 26007KT 10SM OVC037 13/12 A2992 RMK AO2 RAB11E22
     SLP190 P0000 T01330117=

SPECI PAEM 251903Z AUTO 27008KT 10SM FEW008 OVC037 13/12 A2992 RMK
     AO2=

METAR PAEM 251956Z AUTO 27008KT 10SM BKN010 BKN032 OVC044 14/12 A2991
     RMK AO2 SLP189 T01390117=


NOAA's National Weather Service
Alaska Aviation Weather Unit
6930 Sand Lake Road
Anchorage, AK 99502-1845
Disclaimer
Credits
Glossary
Privacy Policy
About Us
Career Opportunities
Contact AAWU Internet Services Site last modified: April, 17th 2012